Time;durP1;ratioP1;P1;durP2;ratioP2;P2;SDS_P1;SDS_P2;PMS_P1;PMS_P2;Temp;Humidity;BMP_temperature;BMP_pressure;BME280_temperature;BME280_humidity;BME280_pressure;Samples;Min_cycle;Max_cycle;Signal;HPM_P1;HPM_P2
2022/04/18 00:01:22;;;;;;;2.53;1.73;;;;;;;;;;4994704;28;20049;-49
2022/04/18 00:03:47;;;;;;;3.28;1.90;;;;;;;;;;4995619;28;20037;-46
2022/04/18 00:06:13;;;;;;;2.95;2.17;;;;;;;;;;4995239;28;20026;-46
2022/04/18 00:08:38;;;;;;;3.10;2.10;;;;;;;;;;4995171;28;20042;-46
2022/04/18 00:11:04;;;;;;;2.33;1.90;;;;;;;;;;4995174;28;20023;-45
2022/04/18 00:13:29;;;;;;;2.35;1.92;;;;;;;;;;4995152;28;20113;-46
2022/04/18 00:15:55;;;;;;;2.70;1.63;;;;;;;;;;4995427;28;20433;-46
2022/04/18 00:18:20;;;;;;;2.03;1.83;;;;;;;;;;4995441;28;20030;-47
2022/04/18 00:20:47;;;;;;;1.80;1.60;;;;;;;;;;4995294;28;20382;-46
2022/04/18 00:23:13;;;;;;;3.20;2.22;;;;;;;;;;4995273;28;20034;-46
2022/04/18 00:25:38;;;;;;;2.00;1.80;;;;;;;;;;4994964;28;20629;-47
2022/04/18 00:28:04;;;;;;;2.78;1.90;;;;;;;;;;4994819;28;20031;-48
2022/04/18 00:30:29;;;;;;;2.15;1.60;;;;;;;;;;4995159;28;20418;-48
2022/04/18 00:32:55;;;;;;;3.92;1.90;;;;;;;;;;4995165;28;20545;-47
2022/04/18 00:35:20;;;;;;;5.03;2.25;;;;;;;;;;4995040;28;20098;-45
2022/04/18 00:37:46;;;;;;;3.53;2.15;;;;;;;;;;4994744;28;20061;-49
2022/04/18 00:40:12;;;;;;;2.50;1.98;;;;;;;;;;4994608;28;20088;-46
2022/04/18 00:42:42;;;;;;;3.75;1.83;;;;;;;;;;4994875;28;20019;-45
2022/04/18 00:45:08;;;;;;;1.90;1.80;;;;;;;;;;4995228;28;20026;-45
2022/04/18 00:47:33;;;;;;;3.05;1.70;;;;;;;;;;4994818;28;20022;-44
2022/04/18 00:49:59;;;;;;;2.10;1.90;;;;;;;;;;4994640;28;20031;-47
2022/04/18 00:52:26;;;;;;;5.38;2.05;;;;;;;;;;4994844;28;20041;-44
2022/04/18 00:54:54;;;;;;;5.78;2.10;;;;;;;;;;4994727;28;20034;-43
2022/04/18 00:57:20;;;;;;;3.58;2.00;;;;;;;;;;4994720;28;20105;-44
2022/04/18 00:59:46;;;;;;;1.95;1.73;;;;;;;;;;4994135;28;20056;-47
2022/04/18 01:02:14;;;;;;;2.63;2.15;;;;;;;;;;4994505;28;20109;-45
2022/04/18 01:04:40;;;;;;;2.88;1.55;;;;;;;;;;4994337;28;20109;-45
2022/04/18 01:07:05;;;;;;;2.60;2.17;;;;;;;;;;4994469;28;20073;-45
2022/04/18 01:09:33;;;;;;;3.88;2.10;;;;;;;;;;4994025;28;20118;-45
2022/04/18 01:11:58;;;;;;;3.83;2.40;;;;;;;;;;4993544;28;20660;-46
2022/04/18 01:14:24;;;;;;;3.53;2.35;;;;;;;;;;4994031;28;20030;-43
2022/04/18 01:16:50;;;;;;;4.05;2.42;;;;;;;;;;4993950;28;20026;-44
2022/04/18 01:19:16;;;;;;;4.10;2.10;;;;;;;;;;4994285;28;20440;-42
2022/04/18 01:21:41;;;;;;;3.40;1.75;;;;;;;;;;4994156;28;20054;-45
2022/04/18 01:28:58;;;;;;;4.07;2.17;;;;;;;;;;4994157;28;20472;-48
2022/04/18 01:29:36;;;;;;;2.05;1.85;;;;;;;;;;4993702;28;20423;-45
2022/04/18 01:32:02;;;;;;;2.90;2.05;;;;;;;;;;4993811;28;20031;-45
2022/04/18 01:34:28;;;;;;;2.60;2.08;;;;;;;;;;4993658;28;20471;-45
2022/04/18 01:36:54;;;;;;;3.20;2.00;;;;;;;;;;4993767;28;20109;-47
2022/04/18 01:39:19;;;;;;;3.72;2.22;;;;;;;;;;4993780;28;20037;-45
2022/04/18 01:41:46;;;;;;;2.15;1.90;;;;;;;;;;4993613;28;20022;-45
2022/04/18 01:44:12;;;;;;;4.28;2.80;;;;;;;;;;4992178;28;20031;-44
2022/04/18 01:46:37;;;;;;;4.35;2.50;;;;;;;;;;4992398;28;20041;-46
2022/04/18 01:49:03;;;;;;;3.70;2.22;;;;;;;;;;4993162;28;20026;-46
2022/04/18 01:51:28;;;;;;;2.92;2.20;;;;;;;;;;4993262;28;20546;-45
2022/04/18 01:53:54;;;;;;;3.97;2.60;;;;;;;;;;4993569;28;20424;-44
2022/04/18 01:56:19;;;;;;;2.85;2.10;;;;;;;;;;4993669;28;20543;-43
2022/04/18 01:58:45;;;;;;;4.05;2.55;;;;;;;;;;4993338;28;20097;-45
2022/04/18 02:01:10;;;;;;;4.68;2.60;;;;;;;;;;4993075;28;20053;-44
2022/04/18 02:03:40;;;;;;;4.05;3.03;;;;;;;;;;4993539;28;20031;-44
2022/04/18 02:06:06;;;;;;;5.80;3.60;;;;;;;;;;4993166;28;20525;-45
2022/04/18 02:08:32;;;;;;;4.15;2.72;;;;;;;;;;4993428;28;20042;-44
2022/04/18 02:10:57;;;;;;;4.15;3.03;;;;;;;;;;4993129;28;20360;-45
2022/04/18 02:13:24;;;;;;;4.22;3.00;;;;;;;;;;4993427;28;20114;-45
2022/04/18 02:15:50;;;;;;;3.50;2.65;;;;;;;;;;4991856;28;20463;-45
2022/04/18 02:18:16;;;;;;;5.25;3.00;;;;;;;;;;4993328;28;20088;-45
2022/04/18 02:20:41;;;;;;;5.72;2.53;;;;;;;;;;4993265;28;20037;-46
2022/04/18 02:23:07;;;;;;;8.95;2.78;;;;;;;;;;4993191;28;20371;-46
2022/04/18 02:25:32;;;;;;;5.70;2.67;;;;;;;;;;4992955;28;20031;-46
2022/04/18 02:27:59;;;;;;;3.60;2.22;;;;;;;;;;4992939;28;20041;-46
2022/04/18 02:30:24;;;;;;;2.80;2.22;;;;;;;;;;4993259;28;20037;-45
2022/04/18 02:32:50;;;;;;;3.65;2.47;;;;;;;;;;4992899;28;20395;-46
2022/04/18 02:35:17;;;;;;;4.75;2.60;;;;;;;;;;4992862;28;20054;-45
2022/04/18 02:37:42;;;;;;;3.80;2.72;;;;;;;;;;4993086;28;20030;-45
2022/04/18 02:40:09;;;;;;;4.57;2.83;;;;;;;;;;4993181;28;20026;-45
2022/04/18 02:42:34;;;;;;;2.55;2.35;;;;;;;;;;4993083;28;20029;-45
2022/04/18 02:45:00;;;;;;;3.45;2.53;;;;;;;;;;4992735;28;20022;-43
2022/04/18 02:47:25;;;;;;;5.32;3.17;;;;;;;;;;4993004;28;20053;-43
2022/04/18 02:49:51;;;;;;;3.08;2.35;;;;;;;;;;4992898;28;20037;-43
2022/04/18 02:52:17;;;;;;;4.25;2.83;;;;;;;;;;4992962;28;20050;-44
2022/04/18 02:54:44;;;;;;;2.72;2.15;;;;;;;;;;4992619;28;20526;-44
2022/04/18 02:57:12;;;;;;;3.38;2.60;;;;;;;;;;4992844;28;20090;-44
2022/04/18 02:59:39;;;;;;;3.17;2.67;;;;;;;;;;4991246;28;20509;-46
2022/04/18 03:02:04;;;;;;;4.97;2.50;;;;;;;;;;4992955;28;20092;-45
2022/04/18 03:04:30;;;;;;;3.15;2.45;;;;;;;;;;4992921;28;20026;-45
2022/04/18 03:06:56;;;;;;;3.92;2.67;;;;;;;;;;4992611;28;20125;-44
2022/04/18 03:09:21;;;;;;;3.85;2.28;;;;;;;;;;4992446;28;20042;-46
2022/04/18 03:11:46;;;;;;;3.10;2.78;;;;;;;;;;4992878;28;20030;-44
2022/04/18 03:14:12;;;;;;;3.70;3.08;;;;;;;;;;4992892;28;20509;-45
2022/04/18 03:16:37;;;;;;;5.05;3.05;;;;;;;;;;4992807;28;20065;-45
2022/04/18 03:19:03;;;;;;;3.75;3.20;;;;;;;;;;4992237;28;20494;-48
2022/04/18 03:21:29;;;;;;;3.80;2.60;;;;;;;;;;4992514;28;20026;-44
2022/04/18 03:23:54;;;;;;;4.82;2.97;;;;;;;;;;4992741;28;20033;-44
2022/04/18 03:26:20;;;;;;;2.88;2.60;;;;;;;;;;4992746;28;20023;-45
2022/04/18 03:28:45;;;;;;;4.15;2.70;;;;;;;;;;4992669;28;20430;-45
2022/04/18 03:31:11;;;;;;;3.20;2.90;;;;;;;;;;4992407;28;20022;-46
2022/04/18 03:33:37;;;;;;;1.30;0.95;;;;;;;;;;4992338;28;20081;-43
2022/04/18 03:41:30;;;;;;;4.45;2.95;;;;;;;;;;4996134;28;20061;-44
2022/04/18 03:43:56;;;;;;;2.38;2.10;;;;;;;;;;4996158;28;20022;-46
2022/04/18 03:46:22;;;;;;;2.70;2.35;;;;;;;;;;4995709;28;20080;-44
2022/04/18 03:48:47;;;;;;;3.22;2.25;;;;;;;;;;4995896;28;20121;-45
2022/04/18 03:51:13;;;;;;;2.95;2.03;;;;;;;;;;4995919;28;20529;-44
2022/04/18 03:53:38;;;;;;;4.45;3.20;;;;;;;;;;4995555;28;20478;-45
2022/04/18 03:56:04;;;;;;;3.20;2.55;;;;;;;;;;4995926;28;20027;-44
2022/04/18 03:58:29;;;;;;;2.90;2.40;;;;;;;;;;4995551;28;20458;-45
2022/04/18 04:00:55;;;;;;;3.42;2.38;;;;;;;;;;4995333;28;20047;-49
2022/04/18 04:03:20;;;;;;;4.80;2.70;;;;;;;;;;4995758;28;20023;-45
2022/04/18 04:05:46;;;;;;;3.38;2.60;;;;;;;;;;4994483;28;20026;-46
2022/04/18 04:08:11;;;;;;;4.22;2.67;;;;;;;;;;4995532;28;20077;-45
2022/04/18 04:10:37;;;;;;;7.47;2.92;;;;;;;;;;4995352;28;20468;-45
2022/04/18 04:13:03;;;;;;;3.38;2.90;;;;;;;;;;4995478;28;20026;-44
2022/04/18 04:15:28;;;;;;;3.80;2.58;;;;;;;;;;4995124;28;20150;-44
2022/04/18 04:17:54;;;;;;;5.07;2.70;;;;;;;;;;4995129;28;20030;-44
2022/04/18 04:20:19;;;;;;;3.30;2.92;;;;;;;;;;4994990;28;20026;-43
2022/04/18 04:22:49;;;;;;;4.43;2.78;;;;;;;;;;4995069;28;20037;-45
2022/04/18 04:25:18;;;;;;;5.00;2.97;;;;;;;;;;4995091;28;20471;-45
2022/04/18 04:27:44;;;;;;;3.78;2.97;;;;;;;;;;4995246;28;20456;-44
2022/04/18 04:30:10;;;;;;;5.43;3.03;;;;;;;;;;4995235;28;20106;-45
2022/04/18 04:32:35;;;;;;;3.70;2.63;;;;;;;;;;4994970;28;20525;-45
2022/04/18 04:35:01;;;;;;;3.55;2.72;;;;;;;;;;4994791;28;20026;-43
2022/04/18 04:37:26;;;;;;;4.90;2.95;;;;;;;;;;4995142;28;20073;-46
2022/04/18 04:39:51;;;;;;;6.82;3.20;;;;;;;;;;4994989;28;20023;-47
2022/04/18 04:42:19;;;;;;;3.75;2.50;;;;;;;;;;4994835;28;20502;-45
2022/04/18 04:44:44;;;;;;;6.15;2.22;;;;;;;;;;4994941;28;20030;-44
2022/04/18 04:47:11;;;;;;;3.05;2.20;;;;;;;;;;4993892;28;20113;-44
2022/04/18 04:49:37;;;;;;;3.25;2.78;;;;;;;;;;4994533;28;20034;-45
2022/04/18 04:52:04;;;;;;;7.13;3.03;;;;;;;;;;4994518;28;20121;-44
2022/04/18 04:54:29;;;;;;;3.25;2.55;;;;;;;;;;4994555;28;20029;-45
2022/04/18 04:56:55;;;;;;;3.75;2.80;;;;;;;;;;4994506;28;20026;-47
2022/04/18 04:59:20;;;;;;;4.57;3.17;;;;;;;;;;4994375;28;20521;-44
2022/04/18 05:01:46;;;;;;;5.45;3.15;;;;;;;;;;4994751;28;20379;-44
2022/04/18 05:04:11;;;;;;;6.18;3.08;;;;;;;;;;4994617;28;20141;-43
2022/04/18 05:06:37;;;;;;;5.20;2.97;;;;;;;;;;4994269;28;20080;-47
2022/04/18 05:09:05;;;;;;;5.40;2.80;;;;;;;;;;4994461;28;20047;-44
2022/04/18 05:11:30;;;;;;;4.93;3.20;;;;;;;;;;4994463;28;20026;-43
2022/04/18 05:13:56;;;;;;;4.20;3.17;;;;;;;;;;4994398;28;20038;-45
2022/04/18 05:16:21;;;;;;;4.60;3.40;;;;;;;;;;4994112;28;20026;-44
2022/04/18 05:18:47;;;;;;;4.88;3.10;;;;;;;;;;4994005;28;20113;-44
2022/04/18 05:21:13;;;;;;;5.18;2.80;;;;;;;;;;4993949;28;20069;-43
2022/04/18 05:23:38;;;;;;;3.80;2.78;;;;;;;;;;4994252;28;20030;-43
2022/04/18 05:26:04;;;;;;;4.10;3.25;;;;;;;;;;4993829;28;20023;-44
2022/04/18 05:28:29;;;;;;;4.15;2.78;;;;;;;;;;4994061;28;20042;-44
2022/04/18 05:30:55;;;;;;;3.92;3.05;;;;;;;;;;4994089;28;20459;-46
2022/04/18 05:33:21;;;;;;;3.08;2.40;;;;;;;;;;4993727;28;20079;-43
2022/04/18 05:35:47;;;;;;;6.43;3.15;;;;;;;;;;4994044;28;20038;-46
2022/04/18 05:38:14;;;;;;;5.03;3.00;;;;;;;;;;4993972;28;20034;-45
2022/04/18 05:40:40;;;;;;;4.03;2.95;;;;;;;;;;4993883;28;20169;-44
2022/04/18 05:43:06;;;;;;;5.53;3.03;;;;;;;;;;4993495;28;20471;-46
2022/04/18 05:45:31;;;;;;;4.65;2.58;;;;;;;;;;4993559;28;20117;-46
2022/04/18 05:47:57;;;;;;;3.53;2.50;;;;;;;;;;4993660;28;20109;-46
2022/04/18 05:50:23;;;;;;;4.55;2.58;;;;;;;;;;4994083;28;20371;-45
2022/04/18 05:52:48;;;;;;;2.28;1.85;;;;;;;;;;4993636;28;20110;-45
2022/04/18 05:55:14;;;;;;;2.05;1.70;;;;;;;;;;4993370;28;20078;-44
2022/04/18 05:57:39;;;;;;;3.38;2.10;;;;;;;;;;4993080;28;20093;-45
2022/04/18 06:00:06;;;;;;;2.28;2.08;;;;;;;;;;4993103;28;20133;-48
2022/04/18 06:02:31;;;;;;;4.63;3.13;;;;;;;;;;4991988;28;20057;-45
2022/04/18 06:04:57;;;;;;;2.10;1.90;;;;;;;;;;4993301;28;20057;-46
2022/04/18 06:07:22;;;;;;;3.78;3.10;;;;;;;;;;4993194;28;20068;-45
2022/04/18 06:09:48;;;;;;;5.18;2.72;;;;;;;;;;4993410;28;20157;-44
2022/04/18 06:12:13;;;;;;;2.75;1.95;;;;;;;;;;4991933;28;20420;-45
2022/04/18 06:14:39;;;;;;;4.22;2.78;;;;;;;;;;4993145;28;20117;-42
2022/04/18 06:17:05;;;;;;;1.90;1.80;;;;;;;;;;4993038;28;20033;-45
2022/04/18 06:19:30;;;;;;;4.63;2.53;;;;;;;;;;4993329;28;20037;-45
2022/04/18 06:21:56;;;;;;;2.70;2.00;;;;;;;;;;4993090;28;20475;-44
2022/04/18 06:24:21;;;;;;;2.67;2.47;;;;;;;;;;4993318;28;20030;-45
2022/04/18 06:26:47;;;;;;;3.40;2.63;;;;;;;;;;4992969;28;20038;-45
2022/04/18 06:29:12;;;;;;;2.70;1.85;;;;;;;;;;4992909;28;20030;-45
2022/04/18 06:31:38;;;;;;;3.78;2.83;;;;;;;;;;4992911;28;20026;-47
2022/04/18 06:34:04;;;;;;;3.65;2.35;;;;;;;;;;4993212;28;20039;-44
2022/04/18 06:36:29;;;;;;;2.13;1.90;;;;;;;;;;4993202;28;20030;-44
2022/04/18 06:38:54;;;;;;;4.88;1.80;;;;;;;;;;4993133;28;20490;-46
2022/04/18 06:41:20;;;;;;;5.10;2.40;;;;;;;;;;4992891;28;20054;-44
2022/04/18 06:43:45;;;;;;;3.58;2.40;;;;;;;;;;4992911;28;20366;-45
2022/04/18 06:46:11;;;;;;;6.80;2.47;;;;;;;;;;4992836;28;20022;-48
2022/04/18 06:48:36;;;;;;;1.80;1.38;;;;;;;;;;4992829;28;20085;-45
2022/04/18 06:51:02;;;;;;;2.10;1.90;;;;;;;;;;4992917;28;20035;-46
2022/04/18 06:53:28;;;;;;;1.52;1.42;;;;;;;;;;4992739;28;20419;-44
2022/04/18 06:58:37;;;;;;;4.10;2.25;;;;;;;;;;4993073;28;20045;-44
2022/04/18 07:01:03;;;;;;;1.40;1.30;;;;;;;;;;4992508;28;20038;-45
2022/04/18 07:03:28;;;;;;;2.92;2.22;;;;;;;;;;4992623;28;20517;-43
2022/04/18 07:05:54;;;;;;;2.53;1.85;;;;;;;;;;4992676;28;20033;-46
2022/04/18 07:08:19;;;;;;;7.38;2.58;;;;;;;;;;4992815;28;20062;-46
2022/04/18 07:10:45;;;;;;;2.17;1.60;;;;;;;;;;4995504;28;20077;-44
2022/04/18 07:13:11;;;;;;;2.05;1.67;;;;;;;;;;4996289;28;20490;-44
2022/04/18 07:15:36;;;;;;;2.25;1.52;;;;;;;;;;4996332;28;20069;-45
2022/04/18 07:18:03;;;;;;;2.20;1.98;;;;;;;;;;4996276;28;20034;-47
2022/04/18 07:20:29;;;;;;;2.60;2.00;;;;;;;;;;4996235;28;20062;-46
2022/04/18 07:22:54;;;;;;;3.42;2.10;;;;;;;;;;4996519;28;20053;-49
2022/04/18 07:25:20;;;;;;;6.18;2.05;;;;;;;;;;4996359;28;20057;-46
2022/04/18 07:27:45;;;;;;;3.80;2.00;;;;;;;;;;4996109;28;20448;-49
2022/04/18 07:30:11;;;;;;;1.95;1.50;;;;;;;;;;4996403;28;20022;-47
2022/04/18 07:32:40;;;;;;;2.53;1.88;;;;;;;;;;4996357;28;20053;-45
2022/04/18 07:35:07;;;;;;;3.30;2.22;;;;;;;;;;4995989;28;20105;-47
2022/04/18 07:37:32;;;;;;;2.50;1.77;;;;;;;;;;4995876;28;20031;-47
2022/04/18 07:39:57;;;;;;;1.30;1.20;;;;;;;;;;4996190;28;20030;-47
2022/04/18 07:42:23;;;;;;;2.58;1.85;;;;;;;;;;4996144;28;20570;-47
2022/04/18 07:44:49;;;;;;;4.55;1.90;;;;;;;;;;4996068;28;20064;-46
2022/04/18 07:47:14;;;;;;;2.67;2.28;;;;;;;;;;4996082;28;20041;-46
2022/04/18 07:49:40;;;;;;;2.60;2.08;;;;;;;;;;4995726;28;20029;-47
2022/04/18 07:52:08;;;;;;;2.78;2.10;;;;;;;;;;4995928;28;20113;-46
2022/04/18 07:54:34;;;;;;;5.07;2.28;;;;;;;;;;4995694;28;20126;-41
2022/04/18 07:57:00;;;;;;;2.72;2.22;;;;;;;;;;4995601;28;20026;-44
2022/04/18 07:59:25;;;;;;;2.58;2.10;;;;;;;;;;4995391;28;20077;-42
2022/04/18 08:01:51;;;;;;;2.15;1.58;;;;;;;;;;4995815;28;20105;-49
2022/04/18 08:04:17;;;;;;;2.58;2.00;;;;;;;;;;4994583;28;20353;-45
2022/04/18 08:06:42;;;;;;;3.33;2.00;;;;;;;;;;4995507;28;20463;-48
2022/04/18 08:09:07;;;;;;;2.60;1.55;;;;;;;;;;4995225;28;20041;-49
2022/04/18 08:11:33;;;;;;;3.33;2.50;;;;;;;;;;4977887;28;20026;-47
2022/04/18 08:13:59;;;;;;;2.88;1.90;;;;;;;;;;4995312;28;20117;-46
2022/04/18 08:16:24;;;;;;;2.85;2.08;;;;;;;;;;4995539;28;20023;-47
2022/04/18 08:18:51;;;;;;;2.88;2.30;;;;;;;;;;4995285;28;20163;-44
2022/04/18 08:21:17;;;;;;;3.03;2.25;;;;;;;;;;4995001;28;20030;-44
2022/04/18 08:23:45;;;;;;;3.13;2.10;;;;;;;;;;4995367;28;20080;-48
2022/04/18 08:26:10;;;;;;;4.65;2.65;;;;;;;;;;4995144;28;20045;-48
2022/04/18 08:28:37;;;;;;;2.13;1.90;;;;;;;;;;4995211;28;20116;-44
2022/04/18 08:31:02;;;;;;;2.95;2.17;;;;;;;;;;4994964;28;20026;-46
2022/04/18 08:33:29;;;;;;;2.90;2.05;;;;;;;;;;4995161;28;20150;-45
2022/04/18 08:35:58;;;;;;;2.85;2.30;;;;;;;;;;4995180;28;20029;-45
2022/04/18 08:38:24;;;;;;;3.00;2.30;;;;;;;;;;4994777;28;20029;-44
2022/04/18 08:40:51;;;;;;;2.30;2.10;;;;;;;;;;4994750;28;20015;-42
2022/04/18 08:43:17;;;;;;;2.40;2.20;;;;;;;;;;4994592;28;20054;-47
2022/04/18 08:45:43;;;;;;;2.97;2.15;;;;;;;;;;4994688;28;20061;-43
2022/04/18 08:53:37;;;;;;;2.53;2.22;;;;;;;;;;4994879;28;20032;-49
2022/04/18 08:56:04;;;;;;;1.98;1.80;;;;;;;;;;4994802;28;20022;-45
2022/04/18 08:58:30;;;;;;;3.08;2.03;;;;;;;;;;4994409;28;20026;-46
2022/04/18 09:00:59;;;;;;;3.63;2.10;;;;;;;;;;4994185;28;20439;-42
2022/04/18 09:03:24;;;;;;;2.67;2.10;;;;;;;;;;4994370;28;20040;-45
2022/04/18 09:06:11;;;;;;;2.85;1.95;;;;;;;;;;4994235;28;20038;-49
2022/04/18 09:08:43;;;;;;;3.08;2.28;;;;;;;;;;4994521;28;20034;-46
2022/04/18 09:11:10;;;;;;;2.85;2.28;;;;;;;;;;4994206;28;20234;-45
2022/04/18 09:13:42;;;;;;;3.50;2.17;;;;;;;;;;4994498;28;20026;-43
2022/04/18 09:16:16;;;;;;;2.25;2.05;;;;;;;;;;4994423;28;20113;-43
2022/04/18 09:18:42;;;;;;;2.60;2.28;;;;;;;;;;4994030;28;20549;-44
2022/04/18 09:21:08;;;;;;;1.90;1.80;;;;;;;;;;4994340;28;20026;-44
2022/04/18 09:23:35;;;;;;;3.00;2.20;;;;;;;;;;4994318;28;20029;-46
2022/04/18 09:26:05;;;;;;;2.88;2.58;;;;;;;;;;4994234;28;20014;-44
2022/04/18 09:28:42;;;;;;;2.70;2.03;;;;;;;;;;4993618;28;20026;-41
2022/04/18 09:31:13;;;;;;;2.33;1.95;;;;;;;;;;4993983;28;20109;-43
2022/04/18 09:33:54;;;;;;;4.13;2.05;;;;;;;;;;4993139;28;20586;-45
2022/04/18 09:36:21;;;;;;;1.75;1.65;;;;;;;;;;4993730;28;20034;-44
2022/04/18 09:38:52;;;;;;;2.78;2.15;;;;;;;;;;4993645;28;20383;-44
2022/04/18 09:41:26;;;;;;;2.30;2.10;;;;;;;;;;4993850;28;20026;-42
2022/04/18 09:43:54;;;;;;;3.50;2.70;;;;;;;;;;4993796;28;20360;-43
2022/04/18 09:46:20;;;;;;;4.00;2.40;;;;;;;;;;4993806;28;20089;-42
2022/04/18 09:48:48;;;;;;;2.38;2.13;;;;;;;;;;4993350;28;20030;-44
2022/04/18 09:51:15;;;;;;;5.72;3.00;;;;;;;;;;4993868;28;20030;-43
2022/04/18 09:53:44;;;;;;;3.50;2.95;;;;;;;;;;5011970;28;20030;-42
2022/04/18 09:56:17;;;;;;;4.07;2.65;;;;;;;;;;5012529;28;20474;-42
2022/04/18 09:58:43;;;;;;;2.97;2.15;;;;;;;;;;5013230;28;20022;-45
2022/04/18 10:01:10;;;;;;;4.65;2.80;;;;;;;;;;5012622;28;20057;-44
2022/04/18 10:03:36;;;;;;;3.03;2.13;;;;;;;;;;5013007;28;20038;-45
2022/04/18 10:06:04;;;;;;;3.17;2.35;;;;;;;;;;5013023;28;20045;-44
2022/04/18 10:08:29;;;;;;;3.13;2.30;;;;;;;;;;5012767;28;20385;-45
2022/04/18 10:10:59;;;;;;;2.50;2.08;;;;;;;;;;5012729;28;20100;-44
2022/04/18 10:13:26;;;;;;;3.33;2.58;;;;;;;;;;5012530;28;20125;-42
2022/04/18 10:15:52;;;;;;;2.58;2.13;;;;;;;;;;4995055;28;20112;-45
2022/04/18 10:18:18;;;;;;;2.67;1.98;;;;;;;;;;5012875;28;20018;-48
2022/04/18 10:21:03;;;;;;;2.17;1.98;;;;;;;;;;5012491;28;20030;-45
2022/04/18 10:23:59;;;;;;;5.70;2.47;;;;;;;;;;5012435;28;20034;-45
2022/04/18 10:26:43;;;;;;;2.92;2.42;;;;;;;;;;5012358;28;20054;-43
2022/04/18 10:29:18;;;;;;;3.50;2.33;;;;;;;;;;5011544;28;20042;-43
2022/04/18 10:31:45;;;;;;;3.47;2.78;;;;;;;;;;5012878;28;20465;-44
2022/04/18 10:34:13;;;;;;;2.85;2.55;;;;;;;;;;5012462;28;20026;-46
2022/04/18 10:36:45;;;;;;;2.85;2.65;;;;;;;;;;5012509;28;20161;-48
2022/04/18 10:39:11;;;;;;;4.28;3.33;;;;;;;;;;5012716;28;20026;-43
2022/04/18 10:41:39;;;;;;;3.45;2.88;;;;;;;;;;5012438;28;20032;-45
2022/04/18 10:44:06;;;;;;;3.63;2.67;;;;;;;;;;5012743;28;20026;-46
2022/04/18 10:46:32;;;;;;;3.58;2.65;;;;;;;;;;5016096;28;20529;-46
2022/04/18 10:49:04;;;;;;;6.15;3.20;;;;;;;;;;5016620;28;20125;-49
2022/04/18 10:51:36;;;;;;;3.55;2.92;;;;;;;;;;5016406;28;20453;-44
2022/04/18 10:54:06;;;;;;;5.47;3.15;;;;;;;;;;5016591;28;20030;-45
2022/04/18 10:57:01;;;;;;;3.80;3.13;;;;;;;;;;5016160;28;20073;-46
2022/04/18 10:59:27;;;;;;;3.47;3.08;;;;;;;;;;5013953;28;20037;-46
2022/04/18 11:01:58;;;;;;;5.38;3.35;;;;;;;;;;5015704;28;20505;-46
2022/04/18 11:04:28;;;;;;;6.15;3.55;;;;;;;;;;5016555;28;20379;-45
2022/04/18 11:07:03;;;;;;;4.68;3.50;;;;;;;;;;5016241;28;20470;-44
2022/04/18 11:09:30;;;;;;;4.28;3.17;;;;;;;;;;5015916;28;20590;-44
2022/04/18 11:12:19;;;;;;;7.00;3.75;;;;;;;;;;5015569;28;20033;-41
2022/04/18 11:15:01;;;;;;;3.70;2.85;;;;;;;;;;5014972;28;20022;-46
2022/04/18 11:17:32;;;;;;;2.80;2.40;;;;;;;;;;4996260;28;20121;-43
2022/04/18 11:20:23;;;;;;;3.60;2.65;;;;;;;;;;4996525;28;20116;-45
2022/04/18 11:23:16;;;;;;;3.97;2.53;;;;;;;;;;4996184;28;20438;-47
2022/04/18 11:26:01;;;;;;;2.65;2.40;;;;;;;;;;4996139;28;20033;-46
2022/04/18 11:28:39;;;;;;;2.80;2.10;;;;;;;;;;4996100;28;20465;-45
2022/04/18 11:31:10;;;;;;;7.93;2.42;;;;;;;;;;4996294;28;20049;-45
2022/04/18 11:33:41;;;;;;;6.15;2.63;;;;;;;;;;4996257;28;20027;-42
2022/04/18 11:36:07;;;;;;;3.97;2.55;;;;;;;;;;4996281;28;20410;-47
2022/04/18 11:38:32;;;;;;;3.80;2.60;;;;;;;;;;4995889;28;20034;-43
2022/04/18 11:40:58;;;;;;;4.88;3.00;;;;;;;;;;4995780;28;20033;-44
2022/04/18 11:43:23;;;;;;;7.03;5.15;;;;;;;;;;4995814;28;20026;-45
2022/04/18 11:45:49;;;;;;;7.45;5.30;;;;;;;;;;4996046;28;20026;-45
2022/04/18 11:48:21;;;;;;;14.07;9.60;;;;;;;;;;4995981;28;20054;-45
2022/04/18 11:50:47;;;;;;;4.93;2.72;;;;;;;;;;4995729;28;20030;-44
2022/04/18 11:53:12;;;;;;;5.68;4.20;;;;;;;;;;4995947;28;20034;-44
2022/04/18 11:55:49;;;;;;;8.38;4.82;;;;;;;;;;4995380;28;20455;-46
2022/04/18 11:58:20;;;;;;;6.47;4.68;;;;;;;;;;5010441;28;20118;-43
2022/04/18 12:09:08;;;;;;;8.85;6.15;;;;;;;;;;5014329;28;20041;-43
2022/04/18 12:11:37;;;;;;;8.38;5.80;;;;;;;;;;5014730;28;20375;-43
2022/04/18 12:14:03;;;;;;;8.45;5.28;;;;;;;;;;5014579;28;20489;-44
2022/04/18 12:16:32;;;;;;;7.45;5.10;;;;;;;;;;5014795;28;20030;-45
2022/04/18 12:18:58;;;;;;;10.32;5.03;;;;;;;;;;5014649;28;20108;-45
2022/04/18 12:21:25;;;;;;;4.15;3.30;;;;;;;;;;5014653;28;20066;-43
2022/04/18 12:23:58;;;;;;;3.58;3.10;;;;;;;;;;5014903;28;20115;-42
2022/04/18 12:26:29;;;;;;;3.65;3.35;;;;;;;;;;5014383;28;20029;-44
2022/04/18 12:29:04;;;;;;;5.72;3.10;;;;;;;;;;5014724;28;20029;-46
2022/04/18 12:31:29;;;;;;;2.45;1.85;;;;;;;;;;5014661;28;20038;-44
2022/04/18 12:33:55;;;;;;;2.20;2.00;;;;;;;;;;5014861;28;20073;-46
2022/04/18 12:36:33;;;;;;;2.25;2.00;;;;;;;;;;5014541;28;20055;-45
2022/04/18 12:38:59;;;;;;;1.52;1.42;;;;;;;;;;5014406;28;20038;-45
2022/04/18 12:41:28;;;;;;;3.42;2.92;;;;;;;;;;5013974;28;20494;-45
2022/04/18 12:43:53;;;;;;;3.45;2.67;;;;;;;;;;5013720;28;20030;-46
2022/04/18 12:46:29;;;;;;;1.38;1.27;;;;;;;;;;4996309;28;20100;-44
2022/04/18 12:48:56;;;;;;;2.55;2.35;;;;;;;;;;5012205;28;20022;-45
2022/04/18 12:51:33;;;;;;;2.00;1.55;;;;;;;;;;5013542;28;20547;-46
2022/04/18 12:53:59;;;;;;;1.45;1.30;;;;;;;;;;5013440;28;20493;-46
2022/04/18 12:56:26;;;;;;;2.10;1.73;;;;;;;;;;5014090;28;20121;-44
2022/04/18 12:58:54;;;;;;;1.92;1.83;;;;;;;;;;5014333;28;20379;-45
2022/04/18 13:01:26;;;;;;;1.63;1.50;;;;;;;;;;5013861;28;20048;-44
2022/04/18 13:03:53;;;;;;;3.05;1.90;;;;;;;;;;5013948;28;20025;-42
2022/04/18 13:06:26;;;;;;;2.05;1.85;;;;;;;;;;5014018;28;20017;-42
2022/04/18 13:08:57;;;;;;;1.83;1.60;;;;;;;;;;5013163;28;20030;-44
2022/04/18 13:11:22;;;;;;;2.50;2.22;;;;;;;;;;5013591;28;20037;-42
2022/04/18 13:13:48;;;;;;;2.95;2.10;;;;;;;;;;5013206;28;20022;-42
2022/04/18 13:16:21;;;;;;;1.98;1.88;;;;;;;;;;5012910;28;20118;-44
2022/04/18 13:18:55;;;;;;;2.25;2.05;;;;;;;;;;5013270;28;20065;-42
2022/04/18 13:21:20;;;;;;;1.38;1.27;;;;;;;;;;5013464;28;20022;-43
2022/04/18 13:23:46;;;;;;;2.65;1.05;;;;;;;;;;5013040;28;20430;-42
2022/04/18 13:26:11;;;;;;;1.50;1.20;;;;;;;;;;5013574;28;20021;-44
2022/04/18 13:28:38;;;;;;;1.25;1.10;;;;;;;;;;5013446;28;20034;-44
2022/04/18 13:31:04;;;;;;;1.67;1.52;;;;;;;;;;5013504;28;20530;-44
2022/04/18 13:33:30;;;;;;;3.20;1.20;;;;;;;;;;4995847;28;20117;-44
2022/04/18 13:38:41;;;;;;;2.38;1.98;;;;;;;;;;5013675;28;20509;-44
2022/04/18 13:41:07;;;;;;;0.88;0.88;;;;;;;;;;5013311;28;20034;-44
2022/04/18 13:43:32;;;;;;;2.35;1.63;;;;;;;;;;5013585;28;20026;-43
2022/04/18 13:45:58;;;;;;;1.27;1.20;;;;;;;;;;5013444;28;20121;-44
2022/04/18 13:48:24;;;;;;;3.60;1.73;;;;;;;;;;5013137;28;20029;-45
2022/04/18 13:50:51;;;;;;;6.40;1.70;;;;;;;;;;5013173;28;20042;-45
2022/04/18 13:53:16;;;;;;;1.98;1.75;;;;;;;;;;5013435;28;20030;-42
2022/04/18 13:55:42;;;;;;;1.95;1.67;;;;;;;;;;5013077;28;20033;-44
2022/04/18 13:58:11;;;;;;;1.60;1.50;;;;;;;;;;5013307;28;20014;-43
2022/04/18 14:00:37;;;;;;;1.15;1.08;;;;;;;;;;5012788;28;20562;-44
2022/04/18 14:03:04;;;;;;;2.67;1.83;;;;;;;;;;5013322;28;20152;-42
2022/04/18 14:05:29;;;;;;;3.20;1.48;;;;;;;;;;5013167;28;20043;-45
2022/04/18 14:07:55;;;;;;;2.17;1.50;;;;;;;;;;5013172;28;20030;-42
2022/04/18 14:10:20;;;;;;;2.00;1.65;;;;;;;;;;5012836;28;20033;-43
2022/04/18 14:12:46;;;;;;;0.57;0.57;;;;;;;;;;5013107;28;20065;-42
2022/04/18 14:20:39;;;;;;;1.30;1.20;;;;;;;;;;5012791;28;20048;-46
2022/04/18 14:23:05;;;;;;;2.78;1.20;;;;;;;;;;5013002;28;20030;-45
2022/04/18 14:25:30;;;;;;;1.60;1.50;;;;;;;;;;5012992;28;20259;-46
2022/04/18 14:27:56;;;;;;;1.63;1.38;;;;;;;;;;5012636;28;20033;-44
2022/04/18 14:30:21;;;;;;;0.90;0.90;;;;;;;;;;5012696;28;20044;-46
2022/04/18 14:32:47;;;;;;;1.30;1.20;;;;;;;;;;5012912;28;20096;-44
2022/04/18 14:35:14;;;;;;;1.38;1.27;;;;;;;;;;5012837;28;20049;-48
2022/04/18 14:37:42;;;;;;;5.20;1.70;;;;;;;;;;5012544;28;20112;-45
2022/04/18 14:40:09;;;;;;;1.02;0.85;;;;;;;;;;5012495;28;20034;-45
2022/04/18 14:42:35;;;;;;;0.70;0.70;;;;;;;;;;5012406;28;20033;-44
2022/04/18 14:45:02;;;;;;;4.18;1.35;;;;;;;;;;5012747;28;20030;-44
2022/04/18 14:47:27;;;;;;;1.27;0.82;;;;;;;;;;5012712;28;20022;-43
2022/04/18 14:49:53;;;;;;;3.28;1.05;;;;;;;;;;5012557;28;20080;-44
2022/04/18 14:52:19;;;;;;;2.67;1.17;;;;;;;;;;5012415;28;20689;-43
2022/04/18 14:54:45;;;;;;;1.67;1.30;;;;;;;;;;5012617;28;20022;-44
2022/04/18 14:57:11;;;;;;;1.65;1.20;;;;;;;;;;5012352;28;20123;-43
2022/04/18 14:59:36;;;;;;;2.38;1.60;;;;;;;;;;5012428;28;20050;-45
2022/04/18 15:02:02;;;;;;;2.13;1.38;;;;;;;;;;5012381;28;20026;-44
2022/04/18 15:04:28;;;;;;;1.95;1.35;;;;;;;;;;5012420;28;20393;-43
2022/04/18 15:06:53;;;;;;;7.57;1.90;;;;;;;;;;5012525;28;20049;-43
2022/04/18 15:09:20;;;;;;;2.08;1.88;;;;;;;;;;5012179;28;20037;-45
2022/04/18 15:11:47;;;;;;;6.63;2.03;;;;;;;;;;5012190;28;20037;-45
2022/04/18 15:14:13;;;;;;;5.30;1.90;;;;;;;;;;4994814;28;20026;-45
2022/04/18 15:16:39;;;;;;;2.33;1.50;;;;;;;;;;5012113;28;20029;-45